Time;durP1;ratioP1;P1;durP2;ratioP2;P2;SDS_P1;SDS_P2;PMS_P1;PMS_P2;Temp;Humidity;BMP_temperature;BMP_pressure;BME280_temperature;BME280_humidity;BME280_pressure;Samples;Min_cycle;Max_cycle;Signal;HPM_P1;HPM_P2
2022/10/28 00:02:26;;;;;;;8.65;6.05;;;;;;;8.54;96.32;94324.41;5130721;27;20467;-74
2022/10/28 00:04:53;;;;;;;7.47;4.38;;;;;;;8.54;96.87;94321.06;5130977;27;20043;-74
2022/10/28 00:07:21;;;;;;;5.82;4.25;;;;;;;8.49;97.54;94329.22;5130442;27;20059;-74
2022/10/28 00:09:48;;;;;;;6.15;4.15;;;;;;;8.46;97.55;94321.84;5131070;27;20043;-75
2022/10/28 00:12:14;;;;;;;5.75;3.58;;;;;;;8.37;97.93;94331.34;5131354;27;20047;-75
2022/10/28 00:14:41;;;;;;;6.45;3.10;;;;;;;8.33;97.98;94324.97;5130810;27;20556;-74
2022/10/28 00:17:08;;;;;;;5.22;3.05;;;;;;;8.35;97.78;94322.25;5131065;27;20548;-75
2022/10/28 00:19:34;;;;;;;5.80;2.80;;;;;;;8.35;98.00;94323.06;5131210;27;20080;-74
2022/10/28 00:22:01;;;;;;;6.70;2.78;;;;;;;8.34;98.45;94333.44;5130780;27;20563;-74
2022/10/28 00:24:29;;;;;;;4.70;2.78;;;;;;;8.29;98.55;94316.81;5131147;27;20092;-74
2022/10/28 00:26:56;;;;;;;4.93;3.03;;;;;;;8.31;97.84;94308.16;5130962;27;20047;-75
2022/10/28 00:29:23;;;;;;;7.10;2.97;;;;;;;8.34;98.46;94311.19;5130683;27;20047;-74
2022/10/28 00:31:51;;;;;;;4.78;3.00;;;;;;;8.23;98.41;94298.78;5130905;27;20415;-75
2022/10/28 00:34:21;;;;;;;5.65;3.15;;;;;;;8.26;98.49;94306.13;5130817;27;20043;-75
2022/10/28 00:36:48;;;;;;;5.80;3.45;;;;;;;8.21;97.83;94306.63;5130846;27;20049;-75
2022/10/28 00:39:17;;;;;;;6.70;3.25;;;;;;;8.10;96.67;94301.91;5130938;27;20088;-75
2022/10/28 00:41:48;;;;;;;5.03;3.17;;;;;;;8.06;96.70;94310.88;5130770;27;20050;-74
2022/10/28 00:44:53;;;;;;;6.65;2.78;;;;;;;7.96;98.14;94316.19;5130954;27;20506;-74
2022/10/28 00:47:33;;;;;;;5.10;2.85;;;;;;;7.81;99.41;94310.94;5116341;27;20046;-74
2022/10/28 00:50:08;;;;;;;5.13;2.83;;;;;;;7.79;100.00;94311.13;5130209;27;20047;-74
2022/10/28 00:52:34;;;;;;;4.93;2.90;;;;;;;7.76;100.00;94314.00;5130666;27;20464;-74
2022/10/28 00:55:03;;;;;;;6.30;2.67;;;;;;;7.73;100.00;94304.09;5130125;27;20088;-74
2022/10/28 00:57:34;;;;;;;6.05;2.92;;;;;;;7.74;100.00;94305.69;5130561;27;20039;-75
2022/10/28 01:00:04;;;;;;;5.80;2.70;;;;;;;7.68;100.00;94296.91;5130268;27;20533;-74
2022/10/28 01:02:32;;;;;;;5.15;2.70;;;;;;;7.67;100.00;94308.09;5130795;27;20111;-75
2022/10/28 01:04:59;;;;;;;4.75;2.70;;;;;;;7.69;100.00;94310.50;5130232;27;20536;-74
2022/10/28 01:07:26;;;;;;;4.57;2.58;;;;;;;7.66;100.00;94303.97;5129966;27;20092;-74
2022/10/28 01:09:53;;;;;;;4.82;3.05;;;;;;;7.57;100.00;94292.16;5130343;27;20047;-75
2022/10/28 01:12:31;;;;;;;5.35;3.10;;;;;;;7.57;100.00;94300.63;5129808;27;20051;-75
2022/10/28 01:15:08;;;;;;;7.03;3.17;;;;;;;7.53;100.00;94311.31;5130146;27;20051;-75
2022/10/28 01:17:50;;;;;;;6.28;3.03;;;;;;;7.49;100.00;94308.31;5130360;27;20047;-74
2022/10/28 01:21:01;;;;;;;5.95;3.13;;;;;;;7.42;100.00;94305.63;5130177;27;20051;-74
2022/10/28 01:23:35;;;;;;;5.65;3.13;;;;;;;7.38;100.00;94303.53;5130248;27;20047;-75
2022/10/28 01:26:42;;;;;;;6.60;3.05;;;;;;;7.32;100.00;94300.66;5129664;27;20491;-74
2022/10/28 01:29:39;;;;;;;5.85;3.20;;;;;;;7.28;100.00;94298.59;5026337;28;20042;-74
2022/10/28 01:32:11;;;;;;;16.17;8.10;;;;;;;7.26;100.00;94305.63;5121760;28;20091;-74
2022/10/28 01:34:46;;;;;;;14.07;6.40;;;;;;;7.28;100.00;94309.63;5130183;28;20457;-74
2022/10/28 01:37:18;;;;;;;12.43;6.40;;;;;;;7.30;100.00;94301.78;5130119;28;20093;-74
2022/10/28 01:39:49;;;;;;;7.68;4.07;;;;;;;7.27;100.00;94304.66;5130079;28;20051;-73
2022/10/28 01:42:27;;;;;;;7.80;3.30;;;;;;;7.24;100.00;94310.09;5129811;28;20048;-74
2022/10/28 01:45:02;;;;;;;6.30;3.70;;;;;;;7.22;100.00;94307.69;5130036;28;20441;-74
2022/10/28 01:47:35;;;;;;;7.10;3.40;;;;;;;7.20;100.00;94315.53;5129555;28;20043;-74
2022/10/28 01:50:07;;;;;;;8.30;3.97;;;;;;;6.93;100.00;94270.66;5129768;28;20043;-75
2022/10/28 01:52:34;;;;;;;6.40;3.83;;;;;;;6.93;100.00;94276.59;5129944;28;20084;-74
2022/10/28 01:55:06;;;;;;;6.22;3.67;;;;;;;7.13;100.00;94306.13;5129725;28;20433;-74
2022/10/28 01:57:35;;;;;;;5.78;3.03;;;;;;;7.04;100.00;94302.78;5131257;27;20457;-75
2022/10/28 02:00:03;;;;;;;6.75;3.55;;;;;;;7.01;100.00;94314.13;5133826;27;20043;-75
2022/10/28 02:02:33;;;;;;;7.38;4.38;;;;;;;6.99;100.00;94313.44;5133720;27;20043;-75
2022/10/28 02:05:27;;;;;;;7.60;3.85;;;;;;;6.96;100.00;94308.69;5133635;27;20043;-75
2022/10/28 02:08:02;;;;;;;7.00;3.90;;;;;;;6.90;100.00;94317.75;5133328;27;20118;-75
2022/10/28 02:10:36;;;;;;;7.32;3.65;;;;;;;6.90;100.00;94320.31;5133824;27;20092;-75
2022/10/28 02:13:13;;;;;;;7.97;3.67;;;;;;;6.89;100.00;94317.94;5133622;27;20502;-75
2022/10/28 02:15:45;;;;;;;7.70;3.67;;;;;;;6.93;100.00;94309.00;5133157;27;20452;-74
2022/10/28 02:18:26;;;;;;;5.90;3.67;;;;;;;6.91;100.00;94293.03;5133710;27;20088;-76
2022/10/28 02:20:58;;;;;;;8.38;3.75;;;;;;;6.98;100.00;94313.63;5133611;27;20047;-75
2022/10/28 02:23:35;;;;;;;7.18;3.83;;;;;;;6.98;100.00;94316.19;5133544;27;20104;-76
2022/10/28 02:26:08;;;;;;;7.38;3.80;;;;;;;6.93;100.00;94311.53;5132877;27;20051;-75
2022/10/28 02:28:41;;;;;;;11.13;3.50;;;;;;;6.90;100.00;94310.09;5133413;27;20096;-74
2022/10/28 02:31:18;;;;;;;8.48;3.60;;;;;;;6.81;100.00;94309.31;5133268;27;20452;-75
2022/10/28 02:33:53;;;;;;;7.22;3.85;;;;;;;6.80;100.00;94317.13;5133108;27;20096;-75
2022/10/28 02:36:22;;;;;;;7.32;3.55;;;;;;;6.59;100.00;94282.66;5133190;27;20047;-75
2022/10/28 02:38:52;;;;;;;6.38;3.55;;;;;;;6.76;100.00;94318.41;5132996;27;20047;-75
2022/10/28 02:41:25;;;;;;;6.95;2.92;;;;;;;6.65;100.00;94306.72;5133026;27;20047;-74
2022/10/28 02:43:56;;;;;;;8.32;4.00;;;;;;;6.51;100.00;94287.72;5132955;27;20047;-75
2022/10/28 02:46:24;;;;;;;6.57;3.47;;;;;;;6.70;100.00;94317.28;5132812;27;20159;-75
2022/10/28 02:48:56;;;;;;;12.18;6.22;;;;;;;6.70;100.00;94319.03;5133117;27;20104;-75
2022/10/28 02:51:30;;;;;;;10.55;5.63;;;;;;;6.66;100.00;94319.34;5132642;27;20410;-77
2022/10/28 02:54:02;;;;;;;12.45;6.57;;;;;;;6.64;100.00;94317.91;5132719;27;20039;-75
2022/10/28 02:56:31;;;;;;;11.38;5.60;;;;;;;6.41;100.00;94288.69;5132580;27;20072;-75
2022/10/28 02:58:58;;;;;;;8.98;4.57;;;;;;;6.35;100.00;94291.06;5132540;27;20626;-75
2022/10/28 03:01:25;;;;;;;9.20;5.20;;;;;;;6.52;100.00;94322.50;5132981;27;20047;-75
2022/10/28 03:03:53;;;;;;;8.32;4.63;;;;;;;6.48;100.00;94311.03;5132550;27;20498;-75
2022/10/28 03:06:20;;;;;;;6.95;3.75;;;;;;;6.48;100.00;94323.78;5132494;27;20051;-75
2022/10/28 03:08:46;;;;;;;6.80;4.10;;;;;;;6.46;100.00;94316.28;5131641;27;20072;-75
2022/10/28 03:11:13;;;;;;;7.88;4.43;;;;;;;6.39;100.00;94317.88;5132679;27;20044;-75
2022/10/28 03:13:40;;;;;;;7.43;4.30;;;;;;;6.39;100.00;94321.22;5132360;27;20043;-75
2022/10/28 03:16:06;;;;;;;8.30;4.20;;;;;;;6.35;100.00;94312.25;5132305;27;20051;-75
2022/10/28 03:18:33;;;;;;;7.97;3.47;;;;;;;6.30;100.00;94317.06;5132412;27;20039;-75
2022/10/28 03:21:01;;;;;;;7.40;4.15;;;;;;;6.29;100.00;94323.09;5132369;27;20035;-76
2022/10/28 03:23:28;;;;;;;7.78;4.25;;;;;;;6.31;100.00;94317.84;5132428;27;20088;-75
2022/10/28 03:25:55;;;;;;;8.00;4.38;;;;;;;6.26;100.00;94319.09;5132519;27;20532;-75
2022/10/28 03:28:21;;;;;;;9.60;4.70;;;;;;;6.28;100.00;94317.19;5132192;27;20092;-75
2022/10/28 03:30:48;;;;;;;7.50;4.10;;;;;;;6.25;100.00;94314.94;5131914;27;20084;-75
2022/10/28 03:33:15;;;;;;;8.15;3.80;;;;;;;6.27;100.00;94323.28;5132332;27;20104;-76
2022/10/28 03:35:41;;;;;;;7.13;4.00;;;;;;;6.23;100.00;94321.97;5131932;27;20092;-75
2022/10/28 03:38:09;;;;;;;8.30;3.70;;;;;;;6.19;100.00;94318.13;5131815;27;20087;-75
2022/10/28 03:40:36;;;;;;;9.93;4.13;;;;;;;6.12;100.00;94323.03;5131901;27;20050;-75
2022/10/28 03:43:03;;;;;;;6.72;3.65;;;;;;;6.05;100.00;94313.59;5131844;27;20449;-75
2022/10/28 03:45:30;;;;;;;5.45;3.35;;;;;;;6.05;100.00;94316.16;5131327;27;20486;-75
2022/10/28 03:47:57;;;;;;;10.07;4.07;;;;;;;5.93;100.00;94315.63;5131890;27;20039;-75
2022/10/28 03:50:24;;;;;;;7.03;4.13;;;;;;;5.97;100.00;94320.25;5131601;27;20050;-75
2022/10/28 03:52:50;;;;;;;6.18;3.70;;;;;;;5.86;100.00;94328.97;5131792;27;20043;-75
2022/10/28 03:55:18;;;;;;;7.28;3.85;;;;;;;5.85;100.00;94324.03;5130458;27;20535;-75
2022/10/28 03:57:45;;;;;;;9.45;4.28;;;;;;;5.88;100.00;94332.16;5130083;27;20091;-75
2022/10/28 04:00:13;;;;;;;7.88;4.45;;;;;;;5.86;100.00;94331.53;5122216;27;20092;-76
2022/10/28 04:02:40;;;;;;;10.90;7.13;;;;;;;5.83;100.00;94320.84;5110221;28;20093;-76
2022/10/28 04:05:07;;;;;;;9.65;4.72;;;;;;;5.64;100.00;94320.09;5110333;28;20051;-76
2022/10/28 04:07:35;;;;;;;12.82;6.70;;;;;;;5.67;100.00;94322.34;5110514;28;20104;-76
2022/10/28 04:10:01;;;;;;;13.48;7.20;;;;;;;5.73;100.00;94318.38;5125935;27;20372;-75
2022/10/28 04:12:30;;;;;;;10.23;5.53;;;;;;;5.81;100.00;94327.81;5118603;27;20047;-76
2022/10/28 04:14:56;;;;;;;11.40;6.20;;;;;;;5.74;100.00;94318.22;5126612;27;20047;-75
2022/10/28 04:17:23;;;;;;;10.50;5.68;;;;;;;5.79;100.00;94322.88;5131069;27;20039;-76
2022/10/28 04:19:50;;;;;;;10.45;5.07;;;;;;;5.72;100.00;94325.25;5123135;27;20043;-76
2022/10/28 04:22:17;;;;;;;10.15;5.25;;;;;;;5.73;100.00;94328.56;5131302;27;20046;-76
2022/10/28 04:24:43;;;;;;;10.20;5.25;;;;;;;5.69;100.00;94329.84;5131114;27;20186;-76
2022/10/28 04:27:10;;;;;;;8.82;4.57;;;;;;;5.61;100.00;94326.28;5130825;27;20457;-77
2022/10/28 04:29:38;;;;;;;9.63;4.85;;;;;;;5.66;100.00;94325.03;5130622;27;20088;-76
2022/10/28 04:32:05;;;;;;;11.27;5.15;;;;;;;5.59;100.00;94333.28;5130879;27;20088;-76
2022/10/28 04:34:32;;;;;;;9.27;4.80;;;;;;;5.52;100.00;94334.84;5130939;27;20043;-76
2022/10/28 04:36:59;;;;;;;11.88;5.50;;;;;;;5.41;100.00;94320.59;5130521;27;20047;-75
2022/10/28 04:39:26;;;;;;;10.82;5.10;;;;;;;5.42;100.00;94329.84;5130800;27;20051;-76
2022/10/28 04:41:52;;;;;;;11.15;4.97;;;;;;;5.34;100.00;94322.94;5130879;27;20039;-76
2022/10/28 04:44:19;;;;;;;9.60;5.38;;;;;;;5.34;100.00;94324.69;5130557;27;20091;-76
2022/10/28 04:46:47;;;;;;;14.20;5.70;;;;;;;5.34;100.00;94332.34;5130367;27;20047;-76
2022/10/28 04:49:14;;;;;;;10.63;4.82;;;;;;;5.34;100.00;94333.13;5130570;27;20679;-76
2022/10/28 04:51:41;;;;;;;11.32;5.47;;;;;;;5.27;100.00;94332.13;5130486;27;20036;-76
2022/10/28 04:54:08;;;;;;;10.48;5.65;;;;;;;5.26;100.00;94328.00;5130599;27;20047;-75
2022/10/28 04:56:35;;;;;;;16.73;6.72;;;;;;;5.26;100.00;94329.72;5130571;27;20051;-75
2022/10/28 04:59:01;;;;;;;12.70;6.05;;;;;;;5.27;100.00;94327.03;5130136;27;20158;-75
2022/10/28 05:01:28;;;;;;;13.77;6.72;;;;;;;5.29;100.00;94327.72;5130611;27;20047;-75
2022/10/28 05:03:56;;;;;;;13.85;6.80;;;;;;;5.29;100.00;94326.91;5130223;27;20043;-74
2022/10/28 05:06:23;;;;;;;12.40;7.25;;;;;;;5.29;100.00;94332.81;5130182;27;20043;-75
2022/10/28 05:08:49;;;;;;;12.77;5.57;;;;;;;5.32;100.00;94334.25;5130401;27;20453;-75
2022/10/28 05:11:16;;;;;;;14.60;6.38;;;;;;;5.18;100.00;94299.91;5130368;27;20039;-75
2022/10/28 05:13:43;;;;;;;11.93;7.38;;;;;;;5.40;100.00;94330.94;5130146;27;20429;-76
2022/10/28 05:16:10;;;;;;;12.63;6.57;;;;;;;5.40;100.00;94331.75;5124174;27;20540;-75
2022/10/28 05:18:36;;;;;;;17.50;7.95;;;;;;;5.41;100.00;94332.56;5127737;27;20096;-76
2022/10/28 05:21:05;;;;;;;14.98;7.03;;;;;;;5.40;100.00;94334.28;5123720;27;20043;-76
2022/10/28 05:23:32;;;;;;;16.77;7.53;;;;;;;5.39;100.00;94339.53;5126858;27;20093;-75
2022/10/28 05:25:58;;;;;;;13.07;7.15;;;;;;;5.35;100.00;94341.59;5130271;27;20206;-75
2022/10/28 05:28:25;;;;;;;16.00;8.52;;;;;;;5.37;100.00;94344.00;5129541;27;20047;-75
2022/10/28 05:30:52;;;;;;;16.55;7.00;;;;;;;5.39;100.00;94340.34;5130174;28;20092;-75
2022/10/28 05:33:18;;;;;;;14.75;7.20;;;;;;;5.42;100.00;94342.56;5129522;27;20397;-75
2022/10/28 05:35:45;;;;;;;13.95;6.75;;;;;;;5.41;100.00;94348.63;5129987;28;20043;-75
2022/10/28 05:38:13;;;;;;;11.63;5.97;;;;;;;5.42;100.00;94355.31;5129814;28;20139;-75
2022/10/28 05:40:40;;;;;;;13.05;6.25;;;;;;;5.45;100.00;94352.47;5129442;28;20536;-75
2022/10/28 05:43:08;;;;;;;13.23;6.35;;;;;;;5.41;100.00;94340.97;5130014;28;20039;-75
2022/10/28 05:45:34;;;;;;;12.07;6.50;;;;;;;5.48;100.00;94347.06;5129862;28;20043;-75
2022/10/28 05:48:01;;;;;;;11.55;6.53;;;;;;;5.44;100.00;94342.44;5129345;28;20040;-75
2022/10/28 05:50:28;;;;;;;19.27;9.60;;;;;;;5.56;100.00;94353.97;5129470;28;20089;-75
2022/10/28 05:52:57;;;;;;;17.30;10.65;;;;;;;5.51;100.00;94343.44;5130027;28;20055;-75
2022/10/28 05:55:27;;;;;;;19.38;9.95;;;;;;;5.70;100.00;94364.59;5130056;28;20454;-75
2022/10/28 05:57:54;;;;;;;17.75;11.05;;;;;;;5.70;100.00;94357.72;5129739;28;20461;-76
2022/10/28 06:00:23;;;;;;;17.75;9.70;;;;;;;5.77;100.00;94357.94;5129302;28;20380;-75
2022/10/28 06:02:49;;;;;;;31.85;23.60;;;;;;;5.74;100.00;94360.78;5129663;28;20048;-75
2022/10/28 06:05:17;;;;;;;27.17;17.98;;;;;;;5.81;100.00;94355.88;5129410;28;20062;-75
2022/10/28 06:07:44;;;;;;;33.83;22.65;;;;;;;5.96;100.00;94361.19;5129372;28;20047;-75
2022/10/28 06:10:11;;;;;;;29.35;20.00;;;;;;;6.06;100.00;94371.34;5129795;28;20112;-75
2022/10/28 06:12:39;;;;;;;34.47;21.92;;;;;;;6.14;100.00;94364.50;5129538;28;20043;-75
2022/10/28 06:15:07;;;;;;;30.50;20.83;;;;;;;6.14;100.00;94348.41;5129722;28;20047;-75
2022/10/28 06:17:34;;;;;;;29.45;16.50;;;;;;;6.46;100.00;94374.19;5129366;28;20108;-75
2022/10/28 06:20:00;;;;;;;27.40;15.63;;;;;;;6.56;100.00;94372.28;5129395;28;20095;-75
2022/10/28 06:22:27;;;;;;;25.63;13.60;;;;;;;6.64;100.00;94368.97;5129155;28;20572;-75
2022/10/28 06:24:54;;;;;;;21.10;12.02;;;;;;;6.83;100.00;94378.09;5129912;28;20100;-75
2022/10/28 06:27:21;;;;;;;20.10;11.13;;;;;;;6.86;100.00;94374.44;5129247;28;20468;-75
2022/10/28 06:29:49;;;;;;;19.80;10.50;;;;;;;7.09;100.00;94380.53;5129307;28;20097;-75
2022/10/28 06:32:15;;;;;;;17.05;9.82;;;;;;;7.24;100.00;94381.66;5129173;28;20067;-75
2022/10/28 06:34:42;;;;;;;16.95;9.95;;;;;;;7.37;100.00;94378.63;5129218;28;20120;-75
2022/10/28 06:37:09;;;;;;;17.35;9.35;;;;;;;7.46;100.00;94378.44;5129223;28;20047;-74
2022/10/28 06:39:37;;;;;;;18.88;9.02;;;;;;;7.62;100.00;94380.22;5129399;28;20039;-75
2022/10/28 06:42:04;;;;;;;18.48;11.57;;;;;;;7.74;100.00;94372.97;5129369;28;20047;-74
2022/10/28 06:44:30;;;;;;;19.45;14.93;;;;;;;7.58;100.00;94343.13;5129480;27;20083;-75
2022/10/28 06:46:58;;;;;;;16.60;10.85;;;;;;;7.92;100.00;94373.75;5132028;27;20043;-76
2022/10/28 06:49:25;;;;;;;19.02;11.85;;;;;;;8.00;100.00;94371.97;5132197;27;20060;-75
2022/10/28 06:51:52;;;;;;;15.60;10.52;;;;;;;8.06;100.00;94370.50;5132699;27;20047;-75
2022/10/28 06:54:18;;;;;;;25.10;11.98;;;;;;;8.13;100.00;94371.44;5132136;27;20581;-75
2022/10/28 06:56:47;;;;;;;27.33;15.45;;;;;;;8.27;100.00;94371.72;5132664;27;20051;-75
2022/10/28 06:59:14;;;;;;;20.35;8.45;;;;;;;8.45;100.00;94371.47;5132605;27;20551;-75
2022/10/28 07:01:40;;;;;;;15.00;7.50;;;;;;;8.64;100.00;94377.97;5132305;27;20536;-75
2022/10/28 07:04:11;;;;;;;14.02;7.40;;;;;;;8.79;100.00;94369.56;5132807;27;20047;-75
2022/10/28 07:06:38;;;;;;;15.00;7.28;;;;;;;8.97;100.00;94376.19;5132252;27;20047;-75
2022/10/28 07:09:05;;;;;;;13.70;7.60;;;;;;;8.98;100.00;94365.75;5132415;27;20043;-75
2022/10/28 07:11:33;;;;;;;11.13;6.68;;;;;;;9.33;100.00;94386.66;5132428;27;20043;-75
2022/10/28 07:13:59;;;;;;;13.88;7.35;;;;;;;9.48;100.00;94368.75;5132382;27;20112;-74
2022/10/28 07:16:26;;;;;;;13.50;6.97;;;;;;;9.65;100.00;94378.06;5132290;27;20043;-74
2022/10/28 07:18:53;;;;;;;14.20;7.45;;;;;;;9.85;100.00;94379.16;5114983;27;20044;-74
2022/10/28 07:21:27;;;;;;;18.02;8.68;;;;;;;9.82;100.00;94348.69;5113352;27;20504;-74
2022/10/28 07:23:54;;;;;;;20.58;8.88;;;;;;;10.12;100.00;94373.59;5120379;27;20043;-75
2022/10/28 07:26:21;;;;;;;20.92;10.90;;;;;;;10.25;100.00;94380.66;5116984;27;20056;-75
2022/10/28 07:28:51;;;;;;;19.30;9.95;;;;;;;10.34;100.00;94383.94;5123431;27;20043;-75
2022/10/28 07:31:21;;;;;;;17.23;9.25;;;;;;;10.44;100.00;94387.06;5126815;27;21500;-76
2022/10/28 07:33:52;;;;;;;31.75;13.80;;;;;;;10.44;100.00;94381.91;5129505;27;20043;-75
2022/10/28 07:36:21;;;;;;;42.88;16.90;;;;;;;10.56;100.00;94388.19;5115332;27;20778;-75
2022/10/28 07:38:50;;;;;;;31.90;15.05;;;;;;;10.68;100.00;94372.28;5130665;27;20042;-75
2022/10/28 07:41:18;;;;;;;32.50;14.07;;;;;;;10.96;100.00;94382.69;5132505;27;20051;-75
2022/10/28 07:43:44;;;;;;;28.88;13.80;;;;;;;11.16;98.60;94382.06;5132115;27;20088;-75
2022/10/28 07:46:11;;;;;;;29.80;14.00;;;;;;;11.34;95.90;94386.00;5132099;27;20453;-75
2022/10/28 07:48:38;;;;;;;30.60;14.35;;;;;;;11.40;95.56;94387.03;5131646;27;20123;-75
2022/10/28 07:51:06;;;;;;;22.63;10.75;;;;;;;11.47;94.52;94380.16;5112127;27;20624;-75
2022/10/28 07:53:35;;;;;;;20.08;10.80;;;;;;;11.65;94.48;94371.97;5130005;27;20047;-75
2022/10/28 07:56:05;;;;;;;21.27;8.77;;;;;;;11.82;94.77;94374.28;5131320;27;20112;-75
2022/10/28 07:58:32;;;;;;;10.93;5.43;;;;;;;11.94;92.61;94374.56;5131411;27;20078;-75
2022/10/28 08:01:04;;;;;;;11.77;5.90;;;;;;;11.97;92.14;94362.09;5131718;27;20104;-75
2022/10/28 08:03:30;;;;;;;14.35;6.50;;;;;;;12.31;90.76;94376.94;5131224;27;20051;-76
2022/10/28 08:06:00;;;;;;;16.33;5.82;;;;;;;12.42;88.40;94378.97;5131324;27;20495;-75
2022/10/28 08:08:27;;;;;;;14.80;5.55;;;;;;;12.61;87.10;94372.31;5131394;27;20051;-75
2022/10/28 08:10:55;;;;;;;17.27;7.28;;;;;;;12.78;87.41;94383.06;5131305;27;20091;-75
2022/10/28 08:13:22;;;;;;;22.50;7.18;;;;;;;12.86;85.58;94376.94;5130710;27;20499;-75
2022/10/28 08:15:52;;;;;;;18.42;7.15;;;;;;;13.10;85.94;94379.97;5131099;27;20411;-75
2022/10/28 08:18:18;;;;;;;17.05;6.28;;;;;;;13.22;83.65;94369.88;5131353;27;20149;-75
2022/10/28 08:20:45;;;;;;;16.98;7.03;;;;;;;13.40;82.00;94379.59;5130951;27;20586;-75
2022/10/28 08:23:12;;;;;;;18.02;8.30;;;;;;;13.43;80.83;94378.41;5131325;27;20092;-75
2022/10/28 08:25:38;;;;;;;13.65;6.38;;;;;;;13.71;84.65;94380.81;5131053;27;20040;-75
2022/10/28 08:28:07;;;;;;;12.30;5.50;;;;;;;14.02;80.55;94381.97;5131149;27;20439;-75
2022/10/28 08:30:33;;;;;;;14.57;4.72;;;;;;;14.03;77.34;94380.19;5130912;27;20626;-76
2022/10/28 08:33:00;;;;;;;17.55;5.50;;;;;;;14.21;77.54;94379.53;5130860;27;20043;-75
2022/10/28 08:35:27;;;;;;;14.73;5.32;;;;;;;14.49;76.72;94380.28;5130756;27;20558;-76
2022/10/28 08:37:53;;;;;;;13.55;4.47;;;;;;;14.60;74.50;94379.63;5130847;27;20043;-77
2022/10/28 08:40:27;;;;;;;11.43;4.40;;;;;;;14.65;74.33;94379.00;5130568;27;20096;-76
2022/10/28 08:43:00;;;;;;;10.73;4.53;;;;;;;14.93;72.31;94386.47;5130801;27;20039;-76
2022/10/28 08:45:40;;;;;;;13.02;5.07;;;;;;;15.14;71.88;94376.78;5130839;27;20456;-76
2022/10/28 08:48:19;;;;;;;10.55;4.03;;;;;;;14.92;70.79;94374.53;5130437;27;20050;-75
2022/10/28 08:50:53;;;;;;;10.70;4.00;;;;;;;14.90;70.92;94384.28;5130791;27;20092;-76
2022/10/28 08:53:27;;;;;;;10.43;4.47;;;;;;;14.82;71.47;94356.09;5130329;27;20043;-76
2022/10/28 08:56:01;;;;;;;11.05;4.07;;;;;;;14.76;69.95;94362.88;5130776;27;20047;-76
2022/10/28 08:58:32;;;;;;;11.57;5.60;;;;;;;15.08;70.25;94385.38;5130594;27;20051;-76
2022/10/28 09:01:01;;;;;;;13.45;5.57;;;;;;;15.33;69.99;94380.22;5130625;27;20043;-75
2022/10/28 09:03:32;;;;;;;11.88;4.82;;;;;;;15.49;70.48;94378.13;5130130;27;20047;-76
2022/10/28 09:06:02;;;;;;;14.10;5.15;;;;;;;15.41;67.59;94370.63;5130189;27;20110;-75
2022/10/28 09:08:33;;;;;;;11.10;4.70;;;;;;;15.42;67.49;94374.81;5129152;27;20047;-76
2022/10/28 09:11:07;;;;;;;10.55;4.55;;;;;;;15.62;69.22;94364.28;5130000;27;20559;-76
2022/10/28 09:13:48;;;;;;;7.50;3.60;;;;;;;16.02;70.06;94361.34;5130234;27;20047;-76
2022/10/28 09:16:27;;;;;;;11.25;4.53;;;;;;;16.31;68.68;94350.50;5130149;27;20055;-76
2022/10/28 09:18:56;;;;;;;12.57;4.82;;;;;;;16.65;63.33;94366.44;5130346;27;20050;-76
2022/10/28 09:21:30;;;;;;;13.63;4.18;;;;;;;16.35;63.41;94358.63;5130215;27;20441;-76
2022/10/28 09:23:58;;;;;;;7.97;4.25;;;;;;;16.50;63.85;94364.25;5130236;27;20047;-76
2022/10/28 09:26:36;;;;;;;10.85;3.63;;;;;;;16.69;62.02;94364.22;5130379;27;20047;-76
2022/10/28 09:29:17;;;;;;;13.00;4.10;;;;;;;16.95;62.40;94357.88;5129686;27;20055;-76
2022/10/28 09:31:50;;;;;;;9.50;3.75;;;;;;;17.08;61.49;94338.75;5129989;27;20564;-76
2022/10/28 09:34:28;;;;;;;14.85;4.45;;;;;;;17.49;62.44;94345.94;5130212;28;20400;-77
2022/10/28 09:36:59;;;;;;;12.70;3.72;;;;;;;17.67;60.18;94337.25;5130332;28;20047;-76
2022/10/28 09:39:29;;;;;;;11.93;3.35;;;;;;;17.74;59.97;94314.53;5130143;28;20039;-76
2022/10/28 09:41:59;;;;;;;14.52;4.13;;;;;;;18.10;58.64;94337.91;5130198;28;20440;-76
2022/10/28 09:44:35;;;;;;;12.48;3.78;;;;;;;18.26;58.30;94333.84;5129812;28;20491;-77
2022/10/28 09:47:05;;;;;;;14.77;4.47;;;;;;;18.34;55.86;94337.09;5129668;28;20043;-76
2022/10/28 09:49:36;;;;;;;12.65;4.40;;;;;;;18.32;57.50;94303.50;5129981;28;20445;-76
2022/10/28 09:52:11;;;;;;;8.75;2.90;;;;;;;18.21;51.11;94323.34;5129496;28;20092;-76
2022/10/28 09:54:42;;;;;;;34.03;9.45;;;;;;;18.10;52.58;94318.94;5129617;28;20088;-76
2022/10/28 09:57:08;;;;;;;9.43;3.00;;;;;;;18.34;53.04;94317.09;5129986;28;20096;-76
2022/10/28 09:59:36;;;;;;;7.32;3.05;;;;;;;18.35;51.79;94325.66;5129661;28;20559;-76
2022/10/28 10:02:04;;;;;;;10.70;3.42;;;;;;;18.40;54.16;94303.16;5129709;28;20039;-77
2022/10/28 10:04:31;;;;;;;6.75;2.60;;;;;;;18.41;51.07;94320.34;5130038;28;20119;-76
2022/10/28 10:07:03;;;;;;;5.03;2.20;;;;;;;18.01;48.05;94306.25;5129727;28;20055;-76
2022/10/28 10:09:31;;;;;;;4.40;2.13;;;;;;;18.08;48.61;94313.97;5129622;28;20560;-76
2022/10/28 10:12:02;;;;;;;4.50;2.30;;;;;;;18.21;51.25;94301.72;5129397;28;20811;-76
2022/10/28 10:14:34;;;;;;;11.73;2.15;;;;;;;18.21;47.94;94312.94;5129596;28;20096;-76
2022/10/28 10:17:05;;;;;;;6.75;2.33;;;;;;;18.25;48.91;94301.06;5114837;28;20048;-76
2022/10/28 10:19:57;;;;;;;7.28;2.25;;;;;;;18.47;48.42;94302.22;5132879;27;20466;-76
2022/10/28 10:22:30;;;;;;;4.75;2.25;;;;;;;18.55;48.30;94301.84;5131788;27;20043;-77
2022/10/28 10:24:56;;;;;;;4.07;2.25;;;;;;;18.63;49.71;94293.69;5133764;27;20096;-76
2022/10/28 10:27:26;;;;;;;4.55;1.58;;;;;;;18.66;46.09;94298.41;5133287;27;20054;-76
2022/10/28 10:29:54;;;;;;;4.97;2.28;;;;;;;18.69;47.02;94292.75;5133288;27;20104;-75
2022/10/28 10:32:25;;;;;;;5.00;2.10;;;;;;;18.87;48.86;94274.53;5133389;27;20092;-76
2022/10/28 10:35:00;;;;;;;4.85;2.28;;;;;;;18.58;45.25;94292.78;5120641;27;20044;-76
2022/10/28 10:37:28;;;;;;;4.63;2.63;;;;;;;18.81;46.56;94282.28;5127603;27;20047;-76
2022/10/28 10:40:16;;;;;;;5.40;2.05;;;;;;;18.75;46.31;94285.03;5133249;27;20039;-76
2022/10/28 10:42:43;;;;;;;4.95;1.88;;;;;;;18.82;46.39;94281.25;5133056;27;20449;-76
2022/10/28 10:45:20;;;;;;;7.40;2.20;;;;;;;18.80;47.77;94275.47;5133271;27;20076;-76
2022/10/28 10:47:49;;;;;;;4.95;1.98;;;;;;;18.73;46.66;94269.63;5133006;27;20100;-76
2022/10/28 10:50:28;;;;;;;9.77;2.72;;;;;;;18.78;48.47;94279.34;5133183;27;20051;-76
2022/10/28 10:52:57;;;;;;;9.38;3.50;;;;;;;18.85;48.11;94268.78;5132787;27;20039;-76
2022/10/28 10:55:32;;;;;;;3.75;2.20;;;;;;;18.74;48.86;94265.22;5132894;27;20044;-76
2022/10/28 10:57:59;;;;;;;5.28;2.45;;;;;;;18.95;49.12;94269.75;5132622;27;20039;-76
2022/10/28 11:00:32;;;;;;;4.65;2.40;;;;;;;19.11;49.61;94256.22;5132890;27;20404;-76
2022/10/28 11:03:01;;;;;;;7.32;2.53;;;;;;;19.00;47.31;94274.25;5132872;27;20065;-75
2022/10/28 11:05:28;;;;;;;4.72;2.30;;;;;;;18.05;48.19;94241.59;5132503;27;20039;-76
2022/10/28 11:07:58;;;;;;;7.43;3.60;;;;;;;18.49;49.22;94256.75;5132644;27;20055;-77
2022/10/28 11:10:27;;;;;;;8.82;4.28;;;;;;;18.49;49.26;94258.53;5132560;27;20396;-76
2022/10/28 11:12:56;;;;;;;8.60;3.80;;;;;;;18.68;49.48;94259.94;5132671;27;20096;-76
2022/10/28 11:15:26;;;;;;;8.05;3.17;;;;;;;18.65;48.85;94247.38;5132467;27;20043;-76
2022/10/28 11:17:59;;;;;;;5.95;3.47;;;;;;;18.51;48.26;94256.53;5132528;27;20051;-75
2022/10/28 11:20:34;;;;;;;11.30;4.10;;;;;;;18.46;48.34;94256.44;5132045;27;20490;-76
2022/10/28 11:23:11;;;;;;;6.40;3.58;;;;;;;18.64;49.74;94258.03;5132330;27;20042;-76
2022/10/28 11:25:42;;;;;;;8.23;4.20;;;;;;;18.23;48.68;94239.88;5132541;27;20055;-77
2022/10/28 11:28:34;;;;;;;10.02;3.28;;;;;;;18.31;47.18;94252.50;5131959;27;20047;-76
2022/10/28 11:31:18;;;;;;;7.43;3.72;;;;;;;18.60;49.28;94255.09;5117186;27;20510;-76
2022/10/28 11:33:54;;;;;;;7.32;3.70;;;;;;;18.53;48.70;94246.66;5123671;27;20458;-76
2022/10/28 11:36:29;;;;;;;9.75;4.15;;;;;;;18.50;47.82;94244.50;5131940;27;20452;-76
2022/10/28 11:39:18;;;;;;;6.00;3.05;;;;;;;18.48;47.39;94236.97;5132162;27;20051;-76
2022/10/28 11:41:57;;;;;;;6.75;2.80;;;;;;;18.65;46.75;94246.59;5132026;27;20108;-76
2022/10/28 11:44:43;;;;;;;8.18;2.50;;;;;;;18.48;46.38;94226.56;5123103;27;20381;-76